sensor_id;sensor_type;location;lat;lon;timestamp;P1;durP1;ratioP1;P2;durP2;ratioP2
5171;SDS011;2605;49.770;9.868;2022-09-09T00:02:00;2.00;;;1.90;;
5171;SDS011;2605;49.770;9.868;2022-09-09T00:04:40;3.00;;;1.90;;
5171;SDS011;2605;49.770;9.868;2022-09-09T00:07:18;3.23;;;2.10;;
5171;SDS011;2605;49.770;9.868;2022-09-09T00:10:15;2.03;;;1.93;;
5171;SDS011;2605;49.770;9.868;2022-09-09T00:15:41;3.40;;;2.10;;
5171;SDS011;2605;49.770;9.868;2022-09-09T00:18:15;2.60;;;1.90;;
5171;SDS011;2605;49.770;9.868;2022-09-09T00:20:58;3.33;;;2.37;;
5171;SDS011;2605;49.770;9.868;2022-09-09T00:23:52;4.23;;;1.67;;
5171;SDS011;2605;49.770;9.868;2022-09-09T00:26:32;1.57;;;1.47;;
5171;SDS011;2605;49.770;9.868;2022-09-09T00:29:09;2.00;;;1.90;;
5171;SDS011;2605;49.770;9.868;2022-09-09T00:31:59;3.77;;;1.60;;
5171;SDS011;2605;49.770;9.868;2022-09-09T00:34:36;4.00;;;1.90;;
5171;SDS011;2605;49.770;9.868;2022-09-09T00:37:08;2.10;;;1.90;;
5171;SDS011;2605;49.770;9.868;2022-09-09T00:39:35;2.57;;;2.17;;
5171;SDS011;2605;49.770;9.868;2022-09-09T00:44:51;2.40;;;2.00;;
5171;SDS011;2605;49.770;9.868;2022-09-09T00:50:38;1.70;;;1.60;;
5171;SDS011;2605;49.770;9.868;2022-09-09T00:56:14;1.87;;;1.63;;
5171;SDS011;2605;49.770;9.868;2022-09-09T00:58:49;1.50;;;1.40;;
5171;SDS011;2605;49.770;9.868;2022-09-09T01:01:37;1.73;;;1.60;;
5171;SDS011;2605;49.770;9.868;2022-09-09T01:04:04;1.47;;;1.37;;
5171;SDS011;2605;49.770;9.868;2022-09-09T01:06:41;1.50;;;1.30;;
5171;SDS011;2605;49.770;9.868;2022-09-09T01:11:43;1.20;;;1.20;;
5171;SDS011;2605;49.770;9.868;2022-09-09T01:14:24;1.37;;;1.27;;
5171;SDS011;2605;49.770;9.868;2022-09-09T01:16:59;2.03;;;1.73;;
5171;SDS011;2605;49.770;9.868;2022-09-09T01:27:50;2.63;;;2.37;;
5171;SDS011;2605;49.770;9.868;2022-09-09T01:30:20;2.83;;;1.80;;
5171;SDS011;2605;49.770;9.868;2022-09-09T01:32:50;1.93;;;1.83;;
5171;SDS011;2605;49.770;9.868;2022-09-09T01:37:57;1.93;;;1.77;;
5171;SDS011;2605;49.770;9.868;2022-09-09T01:40:24;3.27;;;2.03;;
5171;SDS011;2605;49.770;9.868;2022-09-09T01:42:50;2.40;;;1.93;;
5171;SDS011;2605;49.770;9.868;2022-09-09T01:45:17;2.83;;;2.43;;
5171;SDS011;2605;49.770;9.868;2022-09-09T01:47:42;2.43;;;1.97;;
5171;SDS011;2605;49.770;9.868;2022-09-09T01:50:09;2.37;;;2.00;;
5171;SDS011;2605;49.770;9.868;2022-09-09T01:52:37;3.53;;;1.93;;
5171;SDS011;2605;49.770;9.868;2022-09-09T01:55:03;3.23;;;1.90;;
5171;SDS011;2605;49.770;9.868;2022-09-09T01:57:31;2.70;;;2.03;;
5171;SDS011;2605;49.770;9.868;2022-09-09T02:00:11;2.40;;;2.20;;
5171;SDS011;2605;49.770;9.868;2022-09-09T02:02:43;6.63;;;2.37;;
5171;SDS011;2605;49.770;9.868;2022-09-09T02:13:11;4.03;;;2.70;;
5171;SDS011;2605;49.770;9.868;2022-09-09T02:15:50;2.40;;;2.20;;
5171;SDS011;2605;49.770;9.868;2022-09-09T02:18:24;3.20;;;2.60;;
5171;SDS011;2605;49.770;9.868;2022-09-09T02:21:04;2.33;;;2.13;;
5171;SDS011;2605;49.770;9.868;2022-09-09T02:23:32;3.63;;;2.57;;
5171;SDS011;2605;49.770;9.868;2022-09-09T02:25:58;2.87;;;2.67;;
5171;SDS011;2605;49.770;9.868;2022-09-09T02:28:25;4.83;;;2.70;;
5171;SDS011;2605;49.770;9.868;2022-09-09T02:30:54;3.47;;;2.60;;
5171;SDS011;2605;49.770;9.868;2022-09-09T02:33:25;3.07;;;2.30;;
5171;SDS011;2605;49.770;9.868;2022-09-09T02:35:53;5.50;;;2.60;;
5171;SDS011;2605;49.770;9.868;2022-09-09T02:38:21;2.50;;;2.30;;
5171;SDS011;2605;49.770;9.868;2022-09-09T02:40:51;5.20;;;2.80;;
5171;SDS011;2605;49.770;9.868;2022-09-09T02:43:17;2.50;;;2.30;;
5171;SDS011;2605;49.770;9.868;2022-09-09T02:48:49;5.77;;;2.40;;
5171;SDS011;2605;49.770;9.868;2022-09-09T02:56:55;2.63;;;2.10;;
5171;SDS011;2605;49.770;9.868;2022-09-09T02:59:26;6.40;;;3.27;;
5171;SDS011;2605;49.770;9.868;2022-09-09T03:01:52;5.33;;;2.60;;
5171;SDS011;2605;49.770;9.868;2022-09-09T03:04:18;5.57;;;2.40;;
5171;SDS011;2605;49.770;9.868;2022-09-09T03:06:43;2.43;;;2.33;;
5171;SDS011;2605;49.770;9.868;2022-09-09T03:09:09;7.50;;;2.50;;
5171;SDS011;2605;49.770;9.868;2022-09-09T03:11:35;4.93;;;2.80;;
5171;SDS011;2605;49.770;9.868;2022-09-09T03:14:01;3.10;;;2.70;;
5171;SDS011;2605;49.770;9.868;2022-09-09T03:16:27;5.53;;;3.63;;
5171;SDS011;2605;49.770;9.868;2022-09-09T03:18:53;3.90;;;2.67;;
5171;SDS011;2605;49.770;9.868;2022-09-09T03:21:18;2.87;;;2.67;;
5171;SDS011;2605;49.770;9.868;2022-09-09T03:23:44;3.90;;;2.30;;
5171;SDS011;2605;49.770;9.868;2022-09-09T03:26:10;4.60;;;3.00;;
5171;SDS011;2605;49.770;9.868;2022-09-09T03:28:36;2.60;;;2.40;;
5171;SDS011;2605;49.770;9.868;2022-09-09T03:31:02;3.03;;;2.33;;
5171;SDS011;2605;49.770;9.868;2022-09-09T03:33:29;3.77;;;2.30;;
5171;SDS011;2605;49.770;9.868;2022-09-09T03:35:55;3.43;;;2.20;;
5171;SDS011;2605;49.770;9.868;2022-09-09T03:38:24;2.57;;;2.23;;
5171;SDS011;2605;49.770;9.868;2022-09-09T03:40:51;4.60;;;2.23;;
5171;SDS011;2605;49.770;9.868;2022-09-09T03:43:20;4.33;;;2.33;;
5171;SDS011;2605;49.770;9.868;2022-09-09T03:45:46;3.97;;;2.20;;
5171;SDS011;2605;49.770;9.868;2022-09-09T03:48:12;2.50;;;2.00;;
5171;SDS011;2605;49.770;9.868;2022-09-09T03:50:43;7.53;;;2.37;;
5171;SDS011;2605;49.770;9.868;2022-09-09T03:53:10;4.07;;;2.03;;
5171;SDS011;2605;49.770;9.868;2022-09-09T03:55:35;3.73;;;2.10;;
5171;SDS011;2605;49.770;9.868;2022-09-09T03:58:01;3.63;;;2.33;;
5171;SDS011;2605;49.770;9.868;2022-09-09T04:00:26;3.00;;;2.30;;
5171;SDS011;2605;49.770;9.868;2022-09-09T04:02:52;2.70;;;2.00;;
5171;SDS011;2605;49.770;9.868;2022-09-09T04:05:19;5.20;;;2.67;;
5171;SDS011;2605;49.770;9.868;2022-09-09T04:07:44;2.07;;;1.97;;
5171;SDS011;2605;49.770;9.868;2022-09-09T04:10:10;3.77;;;2.07;;
5171;SDS011;2605;49.770;9.868;2022-09-09T04:12:36;5.00;;;2.90;;
5171;SDS011;2605;49.770;9.868;2022-09-09T04:15:01;4.40;;;2.20;;
5171;SDS011;2605;49.770;9.868;2022-09-09T04:17:27;5.77;;;2.30;;
5171;SDS011;2605;49.770;9.868;2022-09-09T04:19:53;3.20;;;2.30;;
5171;SDS011;2605;49.770;9.868;2022-09-09T04:22:18;2.40;;;2.20;;
5171;SDS011;2605;49.770;9.868;2022-09-09T04:24:44;2.70;;;2.23;;
5171;SDS011;2605;49.770;9.868;2022-09-09T04:27:09;2.33;;;2.13;;
5171;SDS011;2605;49.770;9.868;2022-09-09T04:29:34;6.13;;;2.27;;
5171;SDS011;2605;49.770;9.868;2022-09-09T04:32:00;2.33;;;2.23;;
5171;SDS011;2605;49.770;9.868;2022-09-09T04:34:26;9.17;;;2.37;;
5171;SDS011;2605;49.770;9.868;2022-09-09T04:36:51;4.70;;;2.50;;
5171;SDS011;2605;49.770;9.868;2022-09-09T04:39:17;2.30;;;2.10;;
5171;SDS011;2605;49.770;9.868;2022-09-09T04:41:42;2.50;;;2.40;;
5171;SDS011;2605;49.770;9.868;2022-09-09T04:44:08;5.93;;;2.60;;
5171;SDS011;2605;49.770;9.868;2022-09-09T04:46:35;3.20;;;2.57;;
5171;SDS011;2605;49.770;9.868;2022-09-09T04:49:00;4.70;;;2.20;;
5171;SDS011;2605;49.770;9.868;2022-09-09T04:51:25;3.50;;;2.37;;
5171;SDS011;2605;49.770;9.868;2022-09-09T04:53:51;4.53;;;2.30;;
5171;SDS011;2605;49.770;9.868;2022-09-09T04:56:18;5.73;;;3.17;;
5171;SDS011;2605;49.770;9.868;2022-09-09T04:58:44;3.10;;;2.67;;
5171;SDS011;2605;49.770;9.868;2022-09-09T05:01:13;5.23;;;2.20;;
5171;SDS011;2605;49.770;9.868;2022-09-09T05:03:42;3.03;;;2.23;;
5171;SDS011;2605;49.770;9.868;2022-09-09T05:06:10;5.33;;;2.50;;
5171;SDS011;2605;49.770;9.868;2022-09-09T05:08:38;2.40;;;2.20;;
5171;SDS011;2605;49.770;9.868;2022-09-09T05:11:14;4.30;;;2.20;;
5171;SDS011;2605;49.770;9.868;2022-09-09T05:13:50;3.43;;;2.37;;
5171;SDS011;2605;49.770;9.868;2022-09-09T05:16:16;2.87;;;2.63;;
5171;SDS011;2605;49.770;9.868;2022-09-09T05:18:45;3.27;;;2.17;;
5171;SDS011;2605;49.770;9.868;2022-09-09T05:21:12;3.87;;;2.67;;
5171;SDS011;2605;49.770;9.868;2022-09-09T05:23:40;2.37;;;1.90;;
5171;SDS011;2605;49.770;9.868;2022-09-09T05:26:06;3.83;;;2.03;;
5171;SDS011;2605;49.770;9.868;2022-09-09T05:28:34;2.10;;;2.00;;
5171;SDS011;2605;49.770;9.868;2022-09-09T05:31:04;2.13;;;1.93;;
5171;SDS011;2605;49.770;9.868;2022-09-09T05:33:33;2.90;;;2.17;;
5171;SDS011;2605;49.770;9.868;2022-09-09T05:36:01;4.20;;;2.50;;
5171;SDS011;2605;49.770;9.868;2022-09-09T05:38:29;2.93;;;1.83;;
5171;SDS011;2605;49.770;9.868;2022-09-09T05:40:56;5.13;;;1.70;;
5171;SDS011;2605;49.770;9.868;2022-09-09T05:43:22;4.57;;;1.57;;
5171;SDS011;2605;49.770;9.868;2022-09-09T05:45:57;1.97;;;1.77;;
5171;SDS011;2605;49.770;9.868;2022-09-09T05:48:34;3.73;;;1.90;;
5171;SDS011;2605;49.770;9.868;2022-09-09T05:51:02;2.50;;;1.90;;
5171;SDS011;2605;49.770;9.868;2022-09-09T05:53:28;3.83;;;1.80;;
5171;SDS011;2605;49.770;9.868;2022-09-09T05:56:06;4.87;;;1.77;;
5171;SDS011;2605;49.770;9.868;2022-09-09T05:58:39;2.03;;;1.80;;
5171;SDS011;2605;49.770;9.868;2022-09-09T06:01:12;2.33;;;2.03;;
5171;SDS011;2605;49.770;9.868;2022-09-09T06:03:40;1.87;;;1.77;;
5171;SDS011;2605;49.770;9.868;2022-09-09T06:06:08;1.80;;;1.47;;
5171;SDS011;2605;49.770;9.868;2022-09-09T06:08:38;2.37;;;1.43;;
5171;SDS011;2605;49.770;9.868;2022-09-09T06:11:07;2.30;;;1.60;;
5171;SDS011;2605;49.770;9.868;2022-09-09T06:13:38;3.63;;;2.00;;
5171;SDS011;2605;49.770;9.868;2022-09-09T06:16:08;4.50;;;2.40;;
5171;SDS011;2605;49.770;9.868;2022-09-09T06:18:36;1.90;;;1.80;;
5171;SDS011;2605;49.770;9.868;2022-09-09T06:21:03;3.27;;;2.10;;
5171;SDS011;2605;49.770;9.868;2022-09-09T06:23:31;2.90;;;1.77;;
5171;SDS011;2605;49.770;9.868;2022-09-09T06:26:04;2.57;;;1.90;;
5171;SDS011;2605;49.770;9.868;2022-09-09T06:28:33;2.33;;;1.63;;
5171;SDS011;2605;49.770;9.868;2022-09-09T06:30:59;1.83;;;1.63;;
5171;SDS011;2605;49.770;9.868;2022-09-09T06:33:25;1.60;;;1.47;;
5171;SDS011;2605;49.770;9.868;2022-09-09T06:35:52;2.47;;;1.73;;
5171;SDS011;2605;49.770;9.868;2022-09-09T06:38:18;2.87;;;1.80;;
5171;SDS011;2605;49.770;9.868;2022-09-09T06:40:54;1.77;;;1.67;;
5171;SDS011;2605;49.770;9.868;2022-09-09T06:43:21;1.60;;;1.40;;
5171;SDS011;2605;49.770;9.868;2022-09-09T06:45:56;4.83;;;1.70;;
5171;SDS011;2605;49.770;9.868;2022-09-09T06:48:23;2.70;;;2.00;;
5171;SDS011;2605;49.770;9.868;2022-09-09T06:50:51;1.90;;;1.57;;
5171;SDS011;2605;49.770;9.868;2022-09-09T06:53:27;2.10;;;1.80;;
5171;SDS011;2605;49.770;9.868;2022-09-09T06:55:53;3.57;;;2.37;;
5171;SDS011;2605;49.770;9.868;2022-09-09T06:58:19;2.00;;;1.67;;
5171;SDS011;2605;49.770;9.868;2022-09-09T07:00:46;2.90;;;2.20;;
5171;SDS011;2605;49.770;9.868;2022-09-09T07:03:12;4.67;;;2.27;;
5171;SDS011;2605;49.770;9.868;2022-09-09T07:05:41;3.60;;;1.80;;
5171;SDS011;2605;49.770;9.868;2022-09-09T07:08:06;3.43;;;1.87;;
5171;SDS011;2605;49.770;9.868;2022-09-09T07:10:32;2.33;;;2.00;;
5171;SDS011;2605;49.770;9.868;2022-09-09T07:12:59;3.63;;;1.60;;
5171;SDS011;2605;49.770;9.868;2022-09-09T07:15:25;3.63;;;1.43;;
5171;SDS011;2605;49.770;9.868;2022-09-09T07:17:51;2.10;;;1.73;;
5171;SDS011;2605;49.770;9.868;2022-09-09T07:20:18;1.53;;;1.40;;
5171;SDS011;2605;49.770;9.868;2022-09-09T07:22:45;1.63;;;1.43;;
5171;SDS011;2605;49.770;9.868;2022-09-09T07:25:10;2.10;;;1.93;;
5171;SDS011;2605;49.770;9.868;2022-09-09T07:27:36;4.03;;;2.73;;
5171;SDS011;2605;49.770;9.868;2022-09-09T07:30:02;1.87;;;1.47;;
5171;SDS011;2605;49.770;9.868;2022-09-09T07:32:28;5.03;;;1.70;;
5171;SDS011;2605;49.770;9.868;2022-09-09T07:34:55;2.40;;;1.57;;
5171;SDS011;2605;49.770;9.868;2022-09-09T07:37:23;2.80;;;1.50;;
5171;SDS011;2605;49.770;9.868;2022-09-09T07:39:49;1.43;;;1.20;;
5171;SDS011;2605;49.770;9.868;2022-09-09T07:42:16;2.60;;;1.40;;
5171;SDS011;2605;49.770;9.868;2022-09-09T07:44:41;2.70;;;1.50;;
5171;SDS011;2605;49.770;9.868;2022-09-09T07:47:07;6.40;;;2.00;;
5171;SDS011;2605;49.770;9.868;2022-09-09T07:49:32;2.40;;;1.93;;
5171;SDS011;2605;49.770;9.868;2022-09-09T07:51:58;3.83;;;1.30;;
5171;SDS011;2605;49.770;9.868;2022-09-09T07:54:24;3.37;;;1.50;;
5171;SDS011;2605;49.770;9.868;2022-09-09T07:56:51;2.87;;;1.47;;
5171;SDS011;2605;49.770;9.868;2022-09-09T07:59:17;2.20;;;1.77;;
5171;SDS011;2605;49.770;9.868;2022-09-09T08:01:44;3.40;;;1.70;;
5171;SDS011;2605;49.770;9.868;2022-09-09T08:04:13;1.60;;;1.50;;
5171;SDS011;2605;49.770;9.868;2022-09-09T08:06:42;6.87;;;2.10;;
5171;SDS011;2605;49.770;9.868;2022-09-09T08:09:11;1.70;;;1.60;;
5171;SDS011;2605;49.770;9.868;2022-09-09T08:11:38;10.07;;;4.40;;
5171;SDS011;2605;49.770;9.868;2022-09-09T08:14:05;3.20;;;1.70;;
5171;SDS011;2605;49.770;9.868;2022-09-09T08:16:36;2.60;;;1.90;;
5171;SDS011;2605;49.770;9.868;2022-09-09T08:19:08;2.93;;;1.40;;
5171;SDS011;2605;49.770;9.868;2022-09-09T08:21:34;2.83;;;1.83;;
5171;SDS011;2605;49.770;9.868;2022-09-09T08:24:02;3.30;;;1.60;;
5171;SDS011;2605;49.770;9.868;2022-09-09T08:26:31;3.80;;;2.17;;
5171;SDS011;2605;49.770;9.868;2022-09-09T08:29:02;2.40;;;1.73;;
5171;SDS011;2605;49.770;9.868;2022-09-09T08:31:33;3.00;;;1.80;;
5171;SDS011;2605;49.770;9.868;2022-09-09T08:34:04;6.10;;;1.90;;
5171;SDS011;2605;49.770;9.868;2022-09-09T08:36:31;4.63;;;1.70;;
5171;SDS011;2605;49.770;9.868;2022-09-09T08:39:08;3.47;;;1.97;;
5171;SDS011;2605;49.770;9.868;2022-09-09T08:45:03;2.30;;;1.80;;
5171;SDS011;2605;49.770;9.868;2022-09-09T08:50:25;3.70;;;2.10;;
5171;SDS011;2605;49.770;9.868;2022-09-09T08:58:21;3.93;;;2.27;;
5171;SDS011;2605;49.770;9.868;2022-09-09T09:06:30;4.30;;;2.13;;
5171;SDS011;2605;49.770;9.868;2022-09-09T09:12:25;2.33;;;1.90;;
5171;SDS011;2605;49.770;9.868;2022-09-09T09:14:54;2.30;;;1.97;;
5171;SDS011;2605;49.770;9.868;2022-09-09T09:17:21;5.33;;;2.33;;
5171;SDS011;2605;49.770;9.868;2022-09-09T09:19:50;4.13;;;2.00;;
5171;SDS011;2605;49.770;9.868;2022-09-09T09:22:17;4.20;;;2.17;;
5171;SDS011;2605;49.770;9.868;2022-09-09T09:24:49;4.47;;;2.23;;
5171;SDS011;2605;49.770;9.868;2022-09-09T09:29:55;4.43;;;2.20;;
5171;SDS011;2605;49.770;9.868;2022-09-09T09:32:23;3.47;;;2.07;;
5171;SDS011;2605;49.770;9.868;2022-09-09T09:34:51;3.57;;;1.93;;
5171;SDS011;2605;49.770;9.868;2022-09-09T09:37:32;3.43;;;1.90;;
5171;SDS011;2605;49.770;9.868;2022-09-09T09:40:09;5.37;;;2.27;;
5171;SDS011;2605;49.770;9.868;2022-09-09T09:42:36;10.63;;;2.50;;
5171;SDS011;2605;49.770;9.868;2022-09-09T09:45:14;4.23;;;2.17;;
5171;SDS011;2605;49.770;9.868;2022-09-09T09:47:57;3.20;;;2.40;;
5171;SDS011;2605;49.770;9.868;2022-09-09T09:50:23;3.03;;;1.90;;
5171;SDS011;2605;49.770;9.868;2022-09-09T09:52:56;3.00;;;2.50;;
5171;SDS011;2605;49.770;9.868;2022-09-09T09:55:23;3.07;;;1.80;;
5171;SDS011;2605;49.770;9.868;2022-09-09T09:57:49;3.10;;;2.47;;
5171;SDS011;2605;49.770;9.868;2022-09-09T10:00:20;4.30;;;1.97;;
5171;SDS011;2605;49.770;9.868;2022-09-09T10:02:47;5.23;;;1.97;;
5171;SDS011;2605;49.770;9.868;2022-09-09T10:05:24;4.50;;;2.30;;
5171;SDS011;2605;49.770;9.868;2022-09-09T10:10:42;5.73;;;5.33;;
5171;SDS011;2605;49.770;9.868;2022-09-09T10:16:18;7.43;;;2.20;;
5171;SDS011;2605;49.770;9.868;2022-09-09T10:21:53;7.47;;;6.97;;
5171;SDS011;2605;49.770;9.868;2022-09-09T10:27:23;14.30;;;13.60;;
5171;SDS011;2605;49.770;9.868;2022-09-09T10:32:49;15.40;;;14.50;;
5171;SDS011;2605;49.770;9.868;2022-09-09T10:38:05;26.57;;;24.53;;
5171;SDS011;2605;49.770;9.868;2022-09-09T10:40:59;6.87;;;3.70;;
5171;SDS011;2605;49.770;9.868;2022-09-09T10:43:51;13.43;;;12.53;;
5171;SDS011;2605;49.770;9.868;2022-09-09T10:49:44;7.13;;;6.73;;
5171;SDS011;2605;49.770;9.868;2022-09-09T10:52:25;6.70;;;6.40;;
5171;SDS011;2605;49.770;9.868;2022-09-09T10:55:10;5.90;;;5.47;;
5171;SDS011;2605;49.770;9.868;2022-09-09T10:57:49;5.70;;;5.40;;
5171;SDS011;2605;49.770;9.868;2022-09-09T11:00:22;5.63;;;5.43;;
5171;SDS011;2605;49.770;9.868;2022-09-09T11:02:53;5.90;;;5.50;;
5171;SDS011;2605;49.770;9.868;2022-09-09T11:08:21;6.53;;;6.10;;
5171;SDS011;2605;49.770;9.868;2022-09-09T11:13:37;4.80;;;4.40;;
5171;SDS011;2605;49.770;9.868;2022-09-09T11:16:28;4.53;;;4.20;;
5171;SDS011;2605;49.770;9.868;2022-09-09T11:19:11;5.77;;;3.97;;
5171;SDS011;2605;49.770;9.868;2022-09-09T11:21:40;4.37;;;4.10;;
5171;SDS011;2605;49.770;9.868;2022-09-09T11:24:15;3.97;;;3.63;;
5171;SDS011;2605;49.770;9.868;2022-09-09T11:26:52;4.20;;;3.80;;
5171;SDS011;2605;49.770;9.868;2022-09-09T11:29:52;4.13;;;3.70;;
5171;SDS011;2605;49.770;9.868;2022-09-09T11:38:44;3.73;;;3.43;;
5171;SDS011;2605;49.770;9.868;2022-09-09T11:41:11;3.70;;;3.50;;
5171;SDS011;2605;49.770;9.868;2022-09-09T11:43:46;4.50;;;3.50;;
5171;SDS011;2605;49.770;9.868;2022-09-09T11:46:14;5.10;;;3.77;;
5171;SDS011;2605;49.770;9.868;2022-09-09T11:48:43;4.50;;;3.90;;
5171;SDS011;2605;49.770;9.868;2022-09-09T11:53:55;6.10;;;4.20;;
5171;SDS011;2605;49.770;9.868;2022-09-09T11:56:33;4.90;;;4.60;;
5171;SDS011;2605;49.770;9.868;2022-09-09T11:59:23;4.43;;;4.00;;
5171;SDS011;2605;49.770;9.868;2022-09-09T12:04:36;4.87;;;4.47;;
5171;SDS011;2605;49.770;9.868;2022-09-09T12:07:26;4.17;;;3.87;;
5171;SDS011;2605;49.770;9.868;2022-09-09T12:10:04;4.27;;;3.77;;
5171;SDS011;2605;49.770;9.868;2022-09-09T12:12:45;3.67;;;3.37;;
5171;SDS011;2605;49.770;9.868;2022-09-09T12:17:41;6.13;;;3.50;;
5171;SDS011;2605;49.770;9.868;2022-09-09T12:22:47;5.57;;;2.50;;
5171;SDS011;2605;49.770;9.868;2022-09-09T12:28:27;2.80;;;2.30;;
5171;SDS011;2605;49.770;9.868;2022-09-09T12:33:42;5.07;;;2.60;;
5171;SDS011;2605;49.770;9.868;2022-09-09T12:36:13;3.87;;;2.90;;
5171;SDS011;2605;49.770;9.868;2022-09-09T12:38:45;3.40;;;2.73;;
5171;SDS011;2605;49.770;9.868;2022-09-09T12:44:06;3.10;;;2.90;;
5171;SDS011;2605;49.770;9.868;2022-09-09T12:49:02;2.70;;;2.50;;
5171;SDS011;2605;49.770;9.868;2022-09-09T12:51:30;8.07;;;2.37;;
5171;SDS011;2605;49.770;9.868;2022-09-09T12:53:57;2.30;;;2.13;;
5171;SDS011;2605;49.770;9.868;2022-09-09T12:56:25;2.27;;;1.90;;
5171;SDS011;2605;49.770;9.868;2022-09-09T12:58:52;3.90;;;2.20;;
5171;SDS011;2605;49.770;9.868;2022-09-09T13:01:21;2.40;;;1.80;;
5171;SDS011;2605;49.770;9.868;2022-09-09T13:03:51;1.93;;;1.80;;
5171;SDS011;2605;49.770;9.868;2022-09-09T13:06:19;2.80;;;2.50;;
5171;SDS011;2605;49.770;9.868;2022-09-09T13:08:50;1.60;;;1.50;;
5171;SDS011;2605;49.770;9.868;2022-09-09T13:11:17;1.80;;;1.70;;
5171;SDS011;2605;49.770;9.868;2022-09-09T13:13:54;3.17;;;2.50;;
5171;SDS011;2605;49.770;9.868;2022-09-09T13:16:33;1.63;;;1.50;;
5171;SDS011;2605;49.770;9.868;2022-09-09T13:19:01;2.73;;;1.50;;
5171;SDS011;2605;49.770;9.868;2022-09-09T13:21:33;2.67;;;1.83;;
5171;SDS011;2605;49.770;9.868;2022-09-09T13:27:00;3.77;;;1.90;;
5171;SDS011;2605;49.770;9.868;2022-09-09T13:29:28;2.27;;;1.20;;
5171;SDS011;2605;49.770;9.868;2022-09-09T13:32:16;1.70;;;1.17;;
5171;SDS011;2605;49.770;9.868;2022-09-09T13:34:50;2.30;;;1.13;;
5171;SDS011;2605;49.770;9.868;2022-09-09T13:37:38;1.20;;;1.10;;
5171;SDS011;2605;49.770;9.868;2022-09-09T13:40:06;2.70;;;1.30;;
5171;SDS011;2605;49.770;9.868;2022-09-09T13:42:46;1.70;;;1.27;;
5171;SDS011;2605;49.770;9.868;2022-09-09T13:45:19;2.60;;;1.20;;
5171;SDS011;2605;49.770;9.868;2022-09-09T13:47:50;1.60;;;1.10;;
5171;SDS011;2605;49.770;9.868;2022-09-09T13:52:53;1.10;;;1.00;;
5171;SDS011;2605;49.770;9.868;2022-09-09T13:55:21;1.40;;;1.00;;
5171;SDS011;2605;49.770;9.868;2022-09-09T14:00:18;2.73;;;1.40;;
5171;SDS011;2605;49.770;9.868;2022-09-09T14:02:43;1.87;;;1.00;;
5171;SDS011;2605;49.770;9.868;2022-09-09T14:05:09;3.30;;;1.20;;
5171;SDS011;2605;49.770;9.868;2022-09-09T14:07:36;1.40;;;1.30;;
5171;SDS011;2605;49.770;9.868;2022-09-09T14:10:03;3.17;;;1.43;;
5171;SDS011;2605;49.770;9.868;2022-09-09T14:12:29;2.57;;;1.53;;
5171;SDS011;2605;49.770;9.868;2022-09-09T14:14:55;3.43;;;1.70;;
5171;SDS011;2605;49.770;9.868;2022-09-09T14:17:20;4.43;;;1.23;;
5171;SDS011;2605;49.770;9.868;2022-09-09T14:19:47;1.57;;;1.20;;
5171;SDS011;2605;49.770;9.868;2022-09-09T14:22:12;2.97;;;1.27;;
5171;SDS011;2605;49.770;9.868;2022-09-09T14:24:41;3.07;;;1.27;;
5171;SDS011;2605;49.770;9.868;2022-09-09T14:27:07;1.93;;;1.13;;
5171;SDS011;2605;49.770;9.868;2022-09-09T14:29:33;4.83;;;1.93;;
5171;SDS011;2605;49.770;9.868;2022-09-09T14:31:59;3.27;;;1.27;;
5171;SDS011;2605;49.770;9.868;2022-09-09T14:34:25;2.77;;;1.97;;
5171;SDS011;2605;49.770;9.868;2022-09-09T14:36:51;2.73;;;1.30;;
5171;SDS011;2605;49.770;9.868;2022-09-09T14:39:17;2.80;;;1.17;;
5171;SDS011;2605;49.770;9.868;2022-09-09T14:41:42;1.50;;;1.40;;
5171;SDS011;2605;49.770;9.868;2022-09-09T14:44:08;7.20;;;2.53;;
5171;SDS011;2605;49.770;9.868;2022-09-09T14:46:33;6.07;;;4.60;;
5171;SDS011;2605;49.770;9.868;2022-09-09T14:48:59;3.47;;;3.27;;
5171;SDS011;2605;49.770;9.868;2022-09-09T14:51:25;3.73;;;3.53;;
5171;SDS011;2605;49.770;9.868;2022-09-09T14:53:57;4.47;;;4.27;;
5171;SDS011;2605;49.770;9.868;2022-09-09T14:56:25;4.83;;;4.73;;
5171;SDS011;2605;49.770;9.868;2022-09-09T14:58:53;5.40;;;5.10;;
5171;SDS011;2605;49.770;9.868;2022-09-09T15:01:20;5.07;;;4.87;;
5171;SDS011;2605;49.770;9.868;2022-09-09T15:03:51;5.30;;;5.10;;
5171;SDS011;2605;49.770;9.868;2022-09-09T15:06:23;7.00;;;6.70;;
5171;SDS011;2605;49.770;9.868;2022-09-09T15:08:50;7.00;;;6.70;;
5171;SDS011;2605;49.770;9.868;2022-09-09T15:11:17;7.87;;;7.50;;
5171;SDS011;2605;49.770;9.868;2022-09-09T15:13:43;7.33;;;6.73;;
5171;SDS011;2605;49.770;9.868;2022-09-09T15:18:39;5.67;;;5.47;;
5171;SDS011;2605;49.770;9.868;2022-09-09T15:21:10;6.50;;;6.20;;
5171;SDS011;2605;49.770;9.868;2022-09-09T15:23:40;7.67;;;7.17;;
5171;SDS011;2605;49.770;9.868;2022-09-09T15:26:06;8.97;;;8.20;;
5171;SDS011;2605;49.770;9.868;2022-09-09T15:28:32;8.00;;;7.50;;
5171;SDS011;2605;49.770;9.868;2022-09-09T15:31:09;8.77;;;6.90;;
5171;SDS011;2605;49.770;9.868;2022-09-09T15:33:39;6.17;;;5.70;;
5171;SDS011;2605;49.770;9.868;2022-09-09T15:36:39;6.43;;;5.47;;
5171;SDS011;2605;49.770;9.868;2022-09-09T15:38:57;4.17;;;3.97;;
5171;SDS011;2605;49.770;9.868;2022-09-09T15:41:24;3.87;;;3.40;;
5171;SDS011;2605;49.770;9.868;2022-09-09T15:43:51;4.47;;;4.10;;
5171;SDS011;2605;49.770;9.868;2022-09-09T15:48:52;9.90;;;5.27;;
5171;SDS011;2605;49.770;9.868;2022-09-09T15:51:22;4.60;;;3.00;;
5171;SDS011;2605;49.770;9.868;2022-09-09T15:53:48;3.80;;;3.60;;
5171;SDS011;2605;49.770;9.868;2022-09-09T15:56:18;3.80;;;3.20;;
5171;SDS011;2605;49.770;9.868;2022-09-09T15:58:43;3.30;;;3.10;;
5171;SDS011;2605;49.770;9.868;2022-09-09T16:01:09;3.67;;;3.47;;
5171;SDS011;2605;49.770;9.868;2022-09-09T16:03:39;19.03;;;17.70;;
5171;SDS011;2605;49.770;9.868;2022-09-09T16:06:13;17.57;;;16.67;;
5171;SDS011;2605;49.770;9.868;2022-09-09T16:08:40;18.27;;;17.47;;
5171;SDS011;2605;49.770;9.868;2022-09-09T16:11:11;16.50;;;15.80;;
5171;SDS011;2605;49.770;9.868;2022-09-09T16:13:42;17.30;;;16.30;;
5171;SDS011;2605;49.770;9.868;2022-09-09T16:16:09;16.33;;;15.53;;
5171;SDS011;2605;49.770;9.868;2022-09-09T16:18:40;3.90;;;3.00;;
5171;SDS011;2605;49.770;9.868;2022-09-09T16:21:08;7.10;;;6.80;;
5171;SDS011;2605;49.770;9.868;2022-09-09T16:23:38;7.10;;;6.63;;
5171;SDS011;2605;49.770;9.868;2022-09-09T16:26:04;5.60;;;5.40;;
5171;SDS011;2605;49.770;9.868;2022-09-09T16:28:30;4.53;;;4.13;;
5171;SDS011;2605;49.770;9.868;2022-09-09T16:30:56;3.60;;;3.27;;
5171;SDS011;2605;49.770;9.868;2022-09-09T16:33:22;3.87;;;3.60;;
5171;SDS011;2605;49.770;9.868;2022-09-09T16:35:48;3.00;;;2.80;;
5171;SDS011;2605;49.770;9.868;2022-09-09T16:38:14;16.33;;;15.43;;
5171;SDS011;2605;49.770;9.868;2022-09-09T16:40:40;17.20;;;16.20;;
5171;SDS011;2605;49.770;9.868;2022-09-09T16:43:06;16.50;;;15.70;;
5171;SDS011;2605;49.770;9.868;2022-09-09T16:45:34;5.77;;;5.33;;
5171;SDS011;2605;49.770;9.868;2022-09-09T16:48:05;5.87;;;5.47;;
5171;SDS011;2605;49.770;9.868;2022-09-09T16:50:31;6.30;;;5.93;;
5171;SDS011;2605;49.770;9.868;2022-09-09T16:52:57;4.10;;;3.20;;
5171;SDS011;2605;49.770;9.868;2022-09-09T16:55:22;15.17;;;14.10;;
5171;SDS011;2605;49.770;9.868;2022-09-09T16:57:48;4.30;;;2.20;;
5171;SDS011;2605;49.770;9.868;2022-09-09T17:00:14;6.03;;;5.63;;
5171;SDS011;2605;49.770;9.868;2022-09-09T17:02:41;6.87;;;6.57;;
5171;SDS011;2605;49.770;9.868;2022-09-09T17:05:08;3.43;;;2.10;;
5171;SDS011;2605;49.770;9.868;2022-09-09T17:07:34;3.27;;;2.37;;
5171;SDS011;2605;49.770;9.868;2022-09-09T17:10:00;2.50;;;2.30;;
5171;SDS011;2605;49.770;9.868;2022-09-09T17:12:26;4.50;;;2.73;;
5171;SDS011;2605;49.770;9.868;2022-09-09T17:14:52;2.80;;;2.50;;
5171;SDS011;2605;49.770;9.868;2022-09-09T17:17:18;2.30;;;2.10;;
5171;SDS011;2605;49.770;9.868;2022-09-09T17:19:43;3.63;;;2.37;;
5171;SDS011;2605;49.770;9.868;2022-09-09T17:22:09;2.37;;;2.27;;
5171;SDS011;2605;49.770;9.868;2022-09-09T17:24:35;3.30;;;2.67;;
5171;SDS011;2605;49.770;9.868;2022-09-09T17:27:03;3.50;;;2.70;;
5171;SDS011;2605;49.770;9.868;2022-09-09T17:29:28;3.43;;;2.70;;
5171;SDS011;2605;49.770;9.868;2022-09-09T17:31:54;3.20;;;2.93;;
5171;SDS011;2605;49.770;9.868;2022-09-09T17:34:20;3.73;;;2.37;;
5171;SDS011;2605;49.770;9.868;2022-09-09T17:36:45;3.80;;;2.90;;
5171;SDS011;2605;49.770;9.868;2022-09-09T17:39:11;5.17;;;2.40;;
5171;SDS011;2605;49.770;9.868;2022-09-09T17:41:37;2.67;;;2.47;;
5171;SDS011;2605;49.770;9.868;2022-09-09T17:44:06;1.93;;;1.70;;